sensor_id;sensor_type;location;lat;lon;timestamp;temperature;humidity
21489;DHT22;10906;45.194;5.684;2023-07-24T05:02:22;21.00;99.90
21489;DHT22;10906;45.194;5.684;2023-07-24T05:05:07;21.20;99.90
21489;DHT22;10906;45.194;5.684;2023-07-24T05:07:57;20.90;99.90
21489;DHT22;10906;45.194;5.684;2023-07-24T05:10:45;20.50;99.90
21489;DHT22;10906;45.194;5.684;2023-07-24T05:13:29;22.60;99.90
21489;DHT22;10906;45.194;5.684;2023-07-24T05:16:13;21.10;99.90
21489;DHT22;10906;45.194;5.684;2023-07-24T05:19:06;21.20;99.90
21489;DHT22;10906;45.194;5.684;2023-07-24T05:21:51;21.10;99.90
21489;DHT22;10906;45.194;5.684;2023-07-24T05:24:35;21.00;99.90
21489;DHT22;10906;45.194;5.684;2023-07-24T05:27:19;21.00;99.90
21489;DHT22;10906;45.194;5.684;2023-07-24T05:30:05;21.00;99.90
21489;DHT22;10906;45.194;5.684;2023-07-24T05:32:55;21.10;99.90
21489;DHT22;10906;45.194;5.684;2023-07-24T05:45:18;23.00;99.90
21489;DHT22;10906;45.194;5.684;2023-07-24T05:48:02;19.20;99.90
21489;DHT22;10906;45.194;5.684;2023-07-24T05:50:47;20.80;99.90
21489;DHT22;10906;45.194;5.684;2023-07-24T05:53:31;20.80;99.90
21489;DHT22;10906;45.194;5.684;2023-07-24T05:56:16;20.80;99.90
21489;DHT22;10906;45.194;5.684;2023-07-24T05:59:00;20.70;99.90
21489;DHT22;10906;45.194;5.684;2023-07-24T06:01:44;20.60;99.90
21489;DHT22;10906;45.194;5.684;2023-07-24T06:04:31;20.70;99.90
21489;DHT22;10906;45.194;5.684;2023-07-24T06:07:16;21.10;99.90
21489;DHT22;10906;45.194;5.684;2023-07-24T06:10:09;20.40;99.90
21489;DHT22;10906;45.194;5.684;2023-07-24T06:12:53;20.20;99.90
21489;DHT22;10906;45.194;5.684;2023-07-24T06:15:41;20.20;99.90
21489;DHT22;10906;45.194;5.684;2023-07-24T06:18:25;20.10;99.90
21489;DHT22;10906;45.194;5.684;2023-07-24T06:21:09;20.00;99.90
21489;DHT22;10906;45.194;5.684;2023-07-24T06:23:53;20.10;99.90
21489;DHT22;10906;45.194;5.684;2023-07-24T06:26:40;20.20;99.90
21489;DHT22;10906;45.194;5.684;2023-07-24T06:29:28;20.40;99.90
21489;DHT22;10906;45.194;5.684;2023-07-24T06:32:15;21.80;99.90
21489;DHT22;10906;45.194;5.684;2023-07-24T06:35:05;21.10;99.90
21489;DHT22;10906;45.194;5.684;2023-07-24T06:37:53;19.50;99.90
21489;DHT22;10906;45.194;5.684;2023-07-24T06:40:37;20.80;99.90
21489;DHT22;10906;45.194;5.684;2023-07-24T06:43:25;20.60;99.90
21489;DHT22;10906;45.194;5.684;2023-07-24T06:46:12;21.10;99.90
21489;DHT22;10906;45.194;5.684;2023-07-24T06:48:57;21.30;99.90
21489;DHT22;10906;45.194;5.684;2023-07-24T06:51:41;20.90;99.90
21489;DHT22;10906;45.194;5.684;2023-07-24T06:54:25;20.90;99.90
21489;DHT22;10906;45.194;5.684;2023-07-24T06:57:09;20.70;99.90
21489;DHT22;10906;45.194;5.684;2023-07-24T07:00:09;20.50;99.90
21489;DHT22;10906;45.194;5.684;2023-07-24T07:03:03;20.10;99.90
21489;DHT22;10906;45.194;5.684;2023-07-24T07:05:47;20.50;99.90
21489;DHT22;10906;45.194;5.684;2023-07-24T07:08:31;20.50;99.90
21489;DHT22;10906;45.194;5.684;2023-07-24T07:11:19;20.40;99.90
21489;DHT22;10906;45.194;5.684;2023-07-24T07:14:03;20.50;99.90
21489;DHT22;10906;45.194;5.684;2023-07-24T07:16:50;20.60;99.90
21489;DHT22;10906;45.194;5.684;2023-07-24T07:19:35;21.50;99.90
21489;DHT22;10906;45.194;5.684;2023-07-24T07:22:20;20.50;99.90
21489;DHT22;10906;45.194;5.684;2023-07-24T07:25:10;20.60;99.90
21489;DHT22;10906;45.194;5.684;2023-07-24T07:27:57;19.00;99.90
21489;DHT22;10906;45.194;5.684;2023-07-24T07:30:57;23.30;99.90
21489;DHT22;10906;45.194;5.684;2023-07-24T07:37:05;21.00;99.90
21489;DHT22;10906;45.194;5.684;2023-07-24T07:39:50;21.10;99.90
21489;DHT22;10906;45.194;5.684;2023-07-24T07:42:34;21.10;99.90
21489;DHT22;10906;45.194;5.684;2023-07-24T07:45:19;21.10;99.90
21489;DHT22;10906;45.194;5.684;2023-07-24T07:48:03;21.30;99.90
21489;DHT22;10906;45.194;5.684;2023-07-24T07:51:03;21.60;99.90
21489;DHT22;10906;45.194;5.684;2023-07-24T07:53:47;23.60;99.90
21489;DHT22;10906;45.194;5.684;2023-07-24T07:56:47;21.50;99.90
21489;DHT22;10906;45.194;5.684;2023-07-24T07:59:32;21.80;99.90
21489;DHT22;10906;45.194;5.684;2023-07-24T08:02:17;21.60;99.90
21489;DHT22;10906;45.194;5.684;2023-07-24T08:05:01;21.70;99.90
21489;DHT22;10906;45.194;5.684;2023-07-24T08:14:59;22.00;99.90
21489;DHT22;10906;45.194;5.684;2023-07-24T08:17:43;21.20;99.90
21489;DHT22;10906;45.194;5.684;2023-07-24T08:20:28;21.30;99.90
21489;DHT22;10906;45.194;5.684;2023-07-24T08:23:12;21.30;99.90
21489;DHT22;10906;45.194;5.684;2023-07-24T08:25:56;18.80;99.90
21489;DHT22;10906;45.194;5.684;2023-07-24T08:28:40;21.30;99.90
21489;DHT22;10906;45.194;5.684;2023-07-24T08:31:26;21.40;99.90
21489;DHT22;10906;45.194;5.684;2023-07-24T08:34:10;21.50;99.90
21489;DHT22;10906;45.194;5.684;2023-07-24T08:36:54;21.40;99.90
21489;DHT22;10906;45.194;5.684;2023-07-24T08:39:38;21.40;99.90
21489;DHT22;10906;45.194;5.684;2023-07-24T08:42:22;21.50;99.90
21489;DHT22;10906;45.194;5.684;2023-07-24T08:45:10;21.30;99.90
21489;DHT22;10906;45.194;5.684;2023-07-24T08:47:55;21.40;99.90
21489;DHT22;10906;45.194;5.684;2023-07-24T08:50:40;21.50;99.90
21489;DHT22;10906;45.194;5.684;2023-07-24T08:53:24;21.50;99.90
21489;DHT22;10906;45.194;5.684;2023-07-24T08:56:10;21.60;99.90
21489;DHT22;10906;45.194;5.684;2023-07-24T08:58:54;21.30;99.90
21489;DHT22;10906;45.194;5.684;2023-07-24T09:01:40;21.60;99.90
21489;DHT22;10906;45.194;5.684;2023-07-24T09:04:24;21.60;99.90
21489;DHT22;10906;45.194;5.684;2023-07-24T09:07:08;21.90;99.90
21489;DHT22;10906;45.194;5.684;2023-07-24T09:09:53;21.80;99.90
21489;DHT22;10906;45.194;5.684;2023-07-24T09:12:38;22.00;99.90
21489;DHT22;10906;45.194;5.684;2023-07-24T09:51:42;22.40;99.90
21489;DHT22;10906;45.194;5.684;2023-07-24T09:54:32;23.70;99.90
21489;DHT22;10906;45.194;5.684;2023-07-24T09:57:17;24.20;99.90
21489;DHT22;10906;45.194;5.684;2023-07-24T10:00:02;24.10;99.90
21489;DHT22;10906;45.194;5.684;2023-07-24T10:02:46;24.40;99.90
21489;DHT22;10906;45.194;5.684;2023-07-24T10:05:31;25.60;99.90
21489;DHT22;10906;45.194;5.684;2023-07-24T10:08:16;24.80;99.90
21489;DHT22;10906;45.194;5.684;2023-07-24T10:14:24;25.20;99.90
21489;DHT22;10906;45.194;5.684;2023-07-24T10:20:18;25.50;99.90
21489;DHT22;10906;45.194;5.684;2023-07-24T10:23:03;26.70;99.90
21489;DHT22;10906;45.194;5.684;2023-07-24T10:32:47;25.60;99.90
21489;DHT22;10906;45.194;5.684;2023-07-24T10:35:44;25.20;99.90
21489;DHT22;10906;45.194;5.684;2023-07-24T10:56:20;27.00;99.90
21489;DHT22;10906;45.194;5.684;2023-07-24T11:08:55;28.10;99.90
21489;DHT22;10906;45.194;5.684;2023-07-24T11:15:44;26.20;97.70
21489;DHT22;10906;45.194;5.684;2023-07-24T11:18:52;27.10;98.40
21489;DHT22;10906;45.194;5.684;2023-07-24T11:22:03;26.20;96.90
21489;DHT22;10906;45.194;5.684;2023-07-24T11:28:38;27.90;98.80
21489;DHT22;10906;45.194;5.684;2023-07-24T11:40:42;27.20;98.20
21489;DHT22;10906;45.194;5.684;2023-07-24T11:43:30;26.80;99.20
21489;DHT22;10906;45.194;5.684;2023-07-24T11:46:48;26.80;97.70
21489;DHT22;10906;45.194;5.684;2023-07-24T11:49:32;29.10;97.80
21489;DHT22;10906;45.194;5.684;2023-07-24T11:52:20;26.60;99.80
21489;DHT22;10906;45.194;5.684;2023-07-24T11:55:04;26.10;97.00
21489;DHT22;10906;45.194;5.684;2023-07-24T12:01:20;28.20;96.70
21489;DHT22;10906;45.194;5.684;2023-07-24T12:07:20;27.50;97.80
21489;DHT22;10906;45.194;5.684;2023-07-24T12:10:24;26.90;96.00
21489;DHT22;10906;45.194;5.684;2023-07-24T12:16:12;27.40;95.60
21489;DHT22;10906;45.194;5.684;2023-07-24T12:18:56;27.70;95.90
21489;DHT22;10906;45.194;5.684;2023-07-24T12:48:08;29.10;96.60
21489;DHT22;10906;45.194;5.684;2023-07-24T12:50:52;27.40;94.70
21489;DHT22;10906;45.194;5.684;2023-07-24T12:53:45;27.90;94.90
21489;DHT22;10906;45.194;5.684;2023-07-24T12:56:36;28.10;94.10
21489;DHT22;10906;45.194;5.684;2023-07-24T12:59:34;29.50;94.90
21489;DHT22;10906;45.194;5.684;2023-07-24T13:02:27;30.00;94.10
21489;DHT22;10906;45.194;5.684;2023-07-24T13:09:22;29.30;92.40
21489;DHT22;10906;45.194;5.684;2023-07-24T13:12:25;28.90;94.40
21489;DHT22;10906;45.194;5.684;2023-07-24T13:15:10;27.60;91.10
21489;DHT22;10906;45.194;5.684;2023-07-24T13:17:54;28.30;93.40
21489;DHT22;10906;45.194;5.684;2023-07-24T13:20:38;26.80;94.20
21489;DHT22;10906;45.194;5.684;2023-07-24T13:23:28;27.80;95.10
21489;DHT22;10906;45.194;5.684;2023-07-24T13:26:22;28.40;94.50
21489;DHT22;10906;45.194;5.684;2023-07-24T13:29:09;28.10;93.50
21489;DHT22;10906;45.194;5.684;2023-07-24T13:31:53;28.50;93.70
21489;DHT22;10906;45.194;5.684;2023-07-24T13:34:40;28.20;95.10
21489;DHT22;10906;45.194;5.684;2023-07-24T13:37:35;28.60;94.20
21489;DHT22;10906;45.194;5.684;2023-07-24T13:40:20;29.00;94.20
21489;DHT22;10906;45.194;5.684;2023-07-24T13:43:10;28.90;96.20
21489;DHT22;10906;45.194;5.684;2023-07-24T13:46:01;29.50;94.00
21489;DHT22;10906;45.194;5.684;2023-07-24T13:48:55;30.10;92.60
21489;DHT22;10906;45.194;5.684;2023-07-24T13:51:45;29.70;93.90
21489;DHT22;10906;45.194;5.684;2023-07-24T13:54:29;28.60;92.50
21489;DHT22;10906;45.194;5.684;2023-07-24T13:57:13;29.30;93.30
21489;DHT22;10906;45.194;5.684;2023-07-24T13:59:58;30.40;92.30
21489;DHT22;10906;45.194;5.684;2023-07-24T14:02:45;30.90;92.10
21489;DHT22;10906;45.194;5.684;2023-07-24T14:08:43;31.50;90.90
21489;DHT22;10906;45.194;5.684;2023-07-24T14:11:28;31.80;88.30
21489;DHT22;10906;45.194;5.684;2023-07-24T14:14:22;31.80;89.50
21489;DHT22;10906;45.194;5.684;2023-07-24T14:17:22;30.80;89.70
21489;DHT22;10906;45.194;5.684;2023-07-24T14:20:09;30.70;90.30
21489;DHT22;10906;45.194;5.684;2023-07-24T14:23:07;30.20;91.10
21489;DHT22;10906;45.194;5.684;2023-07-24T14:35:23;30.70;89.70
21489;DHT22;10906;45.194;5.684;2023-07-24T14:38:07;31.20;91.90
21489;DHT22;10906;45.194;5.684;2023-07-24T14:40:52;31.20;91.30
21489;DHT22;10906;45.194;5.684;2023-07-24T14:43:36;31.10;90.30
21489;DHT22;10906;45.194;5.684;2023-07-24T14:46:23;31.00;88.80
21489;DHT22;10906;45.194;5.684;2023-07-24T15:04:20;29.90;90.00
21489;DHT22;10906;45.194;5.684;2023-07-24T15:07:07;29.90;89.40
21489;DHT22;10906;45.194;5.684;2023-07-24T15:09:51;29.20;89.10
21489;DHT22;10906;45.194;5.684;2023-07-24T15:12:38;29.40;91.40
21489;DHT22;10906;45.194;5.684;2023-07-24T15:15:26;30.00;90.50
21489;DHT22;10906;45.194;5.684;2023-07-24T15:18:10;29.50;90.20
21489;DHT22;10906;45.194;5.684;2023-07-24T15:20:54;29.40;92.40
21489;DHT22;10906;45.194;5.684;2023-07-24T15:23:44;29.50;91.60
21489;DHT22;10906;45.194;5.684;2023-07-24T15:26:48;30.70;91.30
21489;DHT22;10906;45.194;5.684;2023-07-24T15:29:59;28.10;89.90
21489;DHT22;10906;45.194;5.684;2023-07-24T15:32:43;29.50;91.30
21489;DHT22;10906;45.194;5.684;2023-07-24T15:38:45;28.50;91.20
21489;DHT22;10906;45.194;5.684;2023-07-24T15:45:01;29.70;92.40
21489;DHT22;10906;45.194;5.684;2023-07-24T15:47:46;27.60;92.50
21489;DHT22;10906;45.194;5.684;2023-07-24T15:50:31;28.30;94.50
21489;DHT22;10906;45.194;5.684;2023-07-24T15:53:21;27.70;95.70
21489;DHT22;10906;45.194;5.684;2023-07-24T16:02:27;28.50;95.30
21489;DHT22;10906;45.194;5.684;2023-07-24T16:05:24;27.60;95.00
21489;DHT22;10906;45.194;5.684;2023-07-24T16:10:42;25.80;93.40
21489;DHT22;10906;45.194;5.684;2023-07-24T16:13:26;27.50;94.20
21489;DHT22;10906;45.194;5.684;2023-07-24T16:30:58;27.50;94.30
21489;DHT22;10906;45.194;5.684;2023-07-24T16:33:42;26.70;93.10
21489;DHT22;10906;45.194;5.684;2023-07-24T16:40:51;26.40;93.60
21489;DHT22;10906;45.194;5.684;2023-07-24T16:43:48;27.10;93.80
21489;DHT22;10906;45.194;5.684;2023-07-24T16:46:32;27.20;94.10
21489;DHT22;10906;45.194;5.684;2023-07-24T16:51:52;26.90;94.00
21489;DHT22;10906;45.194;5.684;2023-07-24T16:54:38;26.90;93.90
21489;DHT22;10906;45.194;5.684;2023-07-24T17:00:28;26.60;94.90
21489;DHT22;10906;45.194;5.684;2023-07-24T17:03:22;26.80;96.20
21489;DHT22;10906;45.194;5.684;2023-07-24T17:06:06;28.00;95.00
21489;DHT22;10906;45.194;5.684;2023-07-24T17:08:56;25.90;95.50
21489;DHT22;10906;45.194;5.684;2023-07-24T17:11:42;24.60;94.10
21489;DHT22;10906;45.194;5.684;2023-07-24T17:14:26;25.80;94.80
21489;DHT22;10906;45.194;5.684;2023-07-24T17:17:10;26.20;95.90
21489;DHT22;10906;45.194;5.684;2023-07-24T17:28:36;25.60;95.40
21489;DHT22;10906;45.194;5.684;2023-07-24T17:31:38;27.00;96.40
21489;DHT22;10906;45.194;5.684;2023-07-24T17:38:14;25.40;96.70
21489;DHT22;10906;45.194;5.684;2023-07-24T17:44:29;24.70;97.00
21489;DHT22;10906;45.194;5.684;2023-07-24T17:57:38;24.50;99.90
21489;DHT22;10906;45.194;5.684;2023-07-24T18:00:26;24.90;99.90
21489;DHT22;10906;45.194;5.684;2023-07-24T18:03:18;24.80;99.90
21489;DHT22;10906;45.194;5.684;2023-07-24T18:06:03;24.20;99.90
21489;DHT22;10906;45.194;5.684;2023-07-24T18:08:51;24.20;99.90
21489;DHT22;10906;45.194;5.684;2023-07-24T18:11:41;23.20;99.90
21489;DHT22;10906;45.194;5.684;2023-07-24T18:14:40;24.20;99.90
21489;DHT22;10906;45.194;5.684;2023-07-24T18:17:25;23.50;99.90
21489;DHT22;10906;45.194;5.684;2023-07-24T18:20:15;24.40;99.90
21489;DHT22;10906;45.194;5.684;2023-07-24T18:23:05;25.30;99.90
21489;DHT22;10906;45.194;5.684;2023-07-24T18:25:56;23.90;99.90
21489;DHT22;10906;45.194;5.684;2023-07-24T18:31:34;22.90;99.90
21489;DHT22;10906;45.194;5.684;2023-07-24T18:34:18;23.40;99.90
21489;DHT22;10906;45.194;5.684;2023-07-24T18:37:03;23.20;99.90
21489;DHT22;10906;45.194;5.684;2023-07-24T18:39:54;22.90;99.90
21489;DHT22;10906;45.194;5.684;2023-07-24T18:42:44;24.20;99.90
21489;DHT22;10906;45.194;5.684;2023-07-24T18:45:28;23.40;99.90
21489;DHT22;10906;45.194;5.684;2023-07-24T18:48:13;23.00;99.90
21489;DHT22;10906;45.194;5.684;2023-07-24T18:51:14;22.80;99.90
21489;DHT22;10906;45.194;5.684;2023-07-24T18:53:58;24.90;99.90
21489;DHT22;10906;45.194;5.684;2023-07-24T18:56:42;22.60;99.90
21489;DHT22;10906;45.194;5.684;2023-07-24T18:59:30;22.60;99.90
21489;DHT22;10906;45.194;5.684;2023-07-24T19:02:18;22.90;99.90
21489;DHT22;10906;45.194;5.684;2023-07-24T19:05:02;21.70;99.90
21489;DHT22;10906;45.194;5.684;2023-07-24T19:07:59;22.50;99.90
21489;DHT22;10906;45.194;5.684;2023-07-24T19:10:46;22.70;99.90
21489;DHT22;10906;45.194;5.684;2023-07-24T19:13:39;22.70;99.90
21489;DHT22;10906;45.194;5.684;2023-07-24T19:23:14;22.20;99.90
21489;DHT22;10906;45.194;5.684;2023-07-24T19:36:51;22.70;99.90
21489;DHT22;10906;45.194;5.684;2023-07-24T19:39:35;23.50;99.90
21489;DHT22;10906;45.194;5.684;2023-07-24T19:49:55;22.10;99.90
21489;DHT22;10906;45.194;5.684;2023-07-24T19:52:56;22.10;99.90
21489;DHT22;10906;45.194;5.684;2023-07-24T20:22:53;21.40;99.90
21489;DHT22;10906;45.194;5.684;2023-07-24T20:25:44;21.40;99.90
21489;DHT22;10906;45.194;5.684;2023-07-24T20:28:46;21.20;99.90
21489;DHT22;10906;45.194;5.684;2023-07-24T20:31:31;21.30;99.90
21489;DHT22;10906;45.194;5.684;2023-07-24T20:34:15;21.10;99.90
21489;DHT22;10906;45.194;5.684;2023-07-24T20:36:59;21.20;99.90
21489;DHT22;10906;45.194;5.684;2023-07-24T20:39:49;21.30;99.90
21489;DHT22;10906;45.194;5.684;2023-07-24T20:42:34;21.20;99.90
21489;DHT22;10906;45.194;5.684;2023-07-24T20:45:18;21.40;99.90
21489;DHT22;10906;45.194;5.684;2023-07-24T20:48:18;21.50;99.90
21489;DHT22;10906;45.194;5.684;2023-07-24T20:51:18;20.80;99.90
21489;DHT22;10906;45.194;5.684;2023-07-24T20:57:53;23.00;99.90
21489;DHT22;10906;45.194;5.684;2023-07-24T21:00:37;22.00;99.90
21489;DHT22;10906;45.194;5.684;2023-07-24T21:03:37;21.90;99.90
21489;DHT22;10906;45.194;5.684;2023-07-24T21:11:46;21.30;99.90
21489;DHT22;10906;45.194;5.684;2023-07-24T21:14:30;21.70;99.90
21489;DHT22;10906;45.194;5.684;2023-07-24T21:17:14;21.90;99.90
21489;DHT22;10906;45.194;5.684;2023-07-24T21:19:58;21.90;99.90
21489;DHT22;10906;45.194;5.684;2023-07-24T21:22:42;22.00;99.90
21489;DHT22;10906;45.194;5.684;2023-07-24T21:25:27;21.60;99.90
21489;DHT22;10906;45.194;5.684;2023-07-24T21:28:11;21.70;99.90
21489;DHT22;10906;45.194;5.684;2023-07-24T21:30:55;21.50;99.90
21489;DHT22;10906;45.194;5.684;2023-07-24T21:33:45;21.50;99.90
21489;DHT22;10906;45.194;5.684;2023-07-24T21:36:29;21.80;99.90
21489;DHT22;10906;45.194;5.684;2023-07-24T21:39:17;21.40;99.90
21489;DHT22;10906;45.194;5.684;2023-07-24T21:42:06;20.50;99.90
21489;DHT22;10906;45.194;5.684;2023-07-24T21:44:50;20.90;99.90
21489;DHT22;10906;45.194;5.684;2023-07-24T21:47:37;20.80;99.90
21489;DHT22;10906;45.194;5.684;2023-07-24T21:50:21;21.00;99.90
21489;DHT22;10906;45.194;5.684;2023-07-24T21:53:12;20.90;99.90
21489;DHT22;10906;45.194;5.684;2023-07-24T21:55:57;21.10;99.90
21489;DHT22;10906;45.194;5.684;2023-07-24T21:58:48;21.10;99.90
